• Join FlightAware (Why Join?)
  • Login
  • US Flag 
07:07AM EDT


 

Airport Tracker/Info


-or-


 

Live Flight TrackerFlight Track Log ✈ DAL3970 ✈ 15-Apr-2013 ✈ KCWA - KDTW

Flight Track Log - Related Links

Times and Time Zones

All times are in EDT time to prevent confusion due to time zone crossing. See the DAL3970 flight status page for this flight to view local times or setup timezone preferences in your user account.

Time Position Orientation Groundspeed Altitude Reporting Facility
EDT Latitude Longitude Course Direction KTS MPH feet Rate Location/Type
10:54AM 44.7558 -89.4206 101° East 272 313 4,000  Level Minneapolis Center
10:55AM 44.7394 -89.3194 103° East 276 318 6,000 2,400 Climbing Minneapolis Center
10:56AM 44.7222 -89.2053 102° East 285 328 9,000 2,160 Climbing Minneapolis Center
10:57AM 44.7025 -89.0797 102° East 316 364 10,500 1,380 Climbing Minneapolis Center
10:58AM 44.6716 -88.9696 109° East  Level FlightAware Approximate
10:58AM 44.6781 -88.9417 104° East 363 418 11,900  Level Minneapolis Center
10:59AM 44.6428 -88.8328 101° East  Level FlightAware Approximate
10:59AM 44.6542 -88.7892 102° East 389 448 13,500  Level Minneapolis Center
11:00AM 44.6281 -88.6333 103° East 404 465 14,800 1,500 Climbing Minneapolis Center
11:01AM 44.6028 -88.4697 102° East 421 484 16,600 1,800 Climbing Minneapolis Center
11:02AM 44.5703 -88.2781 103° East 429 494 18,600 1,440 Climbing Minneapolis Center
11:03AM 44.5183 -88.1231 115° Southeast 436 502 19,600 960 Climbing Minneapolis Center
11:04AM 44.4467 -87.9828 126° Southeast 439 505 20,600 960 Climbing Minneapolis Center
11:05AM 44.3856 -87.8619 125° Southeast 446 513 21,600 1,140 Climbing Minneapolis Center
11:06AM 44.2961 -87.6900 126° Southeast 460 529 23,000 1,380 Climbing Minneapolis Center
11:08AM 44.2189 -87.5422 126° Southeast 466 536 24,500 1,080 Climbing Minneapolis Center
11:09AM 44.1417 -87.3942 126° Southeast 469 540 25,300 840 Climbing Minneapolis Center
11:10AM 44.0522 -87.2219 126° Southeast 469 540 26,300 720 Climbing Minneapolis Center
11:11AM 43.9803 -87.0878 127° Southeast 478 550 26,800 300 Climbing Minneapolis Center
11:12AM 43.9008 -86.9397 127° Southeast 480 552 27,000 60 Climbing Minneapolis Center
11:13AM 43.8225 -86.7919 126° Southeast 476 548 27,000  Level Minneapolis Center
11:14AM 43.7369 -86.6006 122° Southeast 494 568 27,000  Level Minneapolis Center
11:15AM 43.6767 -86.4272 116° Southeast 500 575 27,000  Level Minneapolis Center
11:16AM 43.6169 -86.2547 116° Southeast 497 572 27,000  Level Minneapolis Center
11:16AM 43.5931 -86.1872 116° Southeast 496 571 27,000  Level Chicago Center
11:17AM 43.5322 -86.0156 116° Southeast 494 568 27,000 -480 Level Chicago Center
11:18AM 43.4722 -85.8442 116° Southeast 494 568 26,100 -1,080 Descending Chicago Center
11:19AM 43.4108 -85.6742 116° Southeast 493 567 24,900 -1,200 Descending Chicago Center
11:20AM 43.3494 -85.5044 116° Southeast 491 565 23,700 -1,320 Descending Chicago Center
11:21AM 43.2969 -85.3675 118° Southeast 502 578 22,700 -1,320 Descending Cleveland Center
11:22AM 43.2414 -85.1978 114° Southeast 497 572 21,500 -900 Descending Cleveland Center
11:23AM 43.2125 -85.0303 103° East 468 539 21,000 -420 Descending Cleveland Center
11:24AM 43.1744 -84.8767 109° East 448 516 20,700 -1,020 Descending Cleveland Center
11:25AM 43.1339 -84.7286 111° Southeast 424 488 19,000 -1,620 Descending Cleveland Center
11:25AM 43.1167 -84.6675 111° Southeast 429 494 18,400 -1,440 Descending Chicago Center
11:26AM 43.0717 -84.5144 112° Southeast 434 499 16,900 -780 Descending Chicago Center
11:27AM 43.0283 -84.3656 112° Southeast 426 490 16,800  Descending Chicago Center
11:28AM 43.0028 -84.2939 116° Southeast 418 481 16,900 -540 Climbing Cleveland Center
11:29AM 42.9594 -84.1467 112° Southeast 418 481 16,000 -1,380 Descending Cleveland Center
11:30AM 42.9333 -84.0514 110° East 414 476 14,800 -2,040 Descending Cleveland Center
11:30AM 42.9142 -83.9881 112° Southeast 405 466 14,000 -1,920 Descending Cleveland Center
11:31AM 42.8742 -83.8639 114° Southeast 388 447 12,300 -1,140 Descending Cleveland Center
11:32AM 42.8397 -83.7489 112° Southeast 291 335 11,900 -180 Descending Cleveland Center
11:33AM 42.7683 -83.6917 150° Southeast 290 334 12,000 -540 Climbing Cleveland Center
11:34AM 42.6986 -83.6514 157° South 279 321 10,800 -1,380 Descending Cleveland Center
11:35AM 42.6425 -83.6189 157° South 252 290 9,400 -1,560 Descending FAA TRACON SMA TRACON (SMA)
11:35AM 42.6183 -83.6050 157° South 248 285 8,900 -1,380 Descending FAA TRACON SMA TRACON (SMA)
11:36AM 42.5994 -83.5922 154° Southeast 254 292 8,500 -1,440 Descending FAA TRACON SMA TRACON (SMA)
11:36AM 42.5856 -83.5697 130° Southeast 256 295 8,000 -1,500 Descending FAA TRACON SMA TRACON (SMA)
11:36AM 42.5694 -83.5392 126° Southeast 256 295 7,500 -1,320 Descending FAA TRACON SMA TRACON (SMA)
11:37AM 42.5581 -83.5181 126° Southeast 251 289 7,100 -1,380 Descending FAA TRACON SMA TRACON (SMA)
11:37AM 42.5450 -83.4917 124° Southeast 245 282 6,600 -1,380 Descending FAA TRACON SMA TRACON (SMA)
11:37AM 42.5331 -83.4689 125° Southeast 240 276 6,200 -960 Descending FAA TRACON SMA TRACON (SMA)
11:37AM 42.5194 -83.4425 125° Southeast 236 272 6,000 -300 Descending FAA TRACON SMA TRACON (SMA)
11:38AM 42.4983 -83.4106 132° Southeast 240 276 6,000 -420 Level Cleveland Center
11:39AM 42.4808 -83.3681 119° Southeast 242 278 5,600 -1,140 Descending FAA TRACON SMA TRACON (SMA)
11:39AM 42.4681 -83.3422 124° Southeast 240 276 5,000 -1,800 Descending FAA TRACON SMA TRACON (SMA)
11:39AM 42.4567 -83.3194 124° Southeast 239 275 4,400 -1,500 Descending FAA TRACON SMA TRACON (SMA)
11:40AM 42.4417 -83.2908 125° Southeast 241 277 4,000 -660 Descending FAA TRACON SMA TRACON (SMA)
11:40AM 42.4294 -83.2667 124° Southeast 251 289 4,000  Level FAA TRACON SMA TRACON (SMA)
11:40AM 42.4089 -83.2486 147° Southeast 232 267 4,000 -180 Level FAA TRACON SMA TRACON (SMA)
11:41AM 42.3908 -83.2475 177° South 219 252 3,900 -300 Descending FAA TRACON SMA TRACON (SMA)
11:41AM 42.3711 -83.2464 178° South 194 223 3,800 -480 Descending FAA TRACON SMA TRACON (SMA)
11:41AM 42.3536 -83.2453 177° South 172 198 3,600 -780 Descending FAA TRACON SMA TRACON (SMA)
11:42AM 42.3397 -83.2456 181° South 159 183 3,300 -780 Descending FAA TRACON SMA TRACON (SMA)
11:42AM 42.3283 -83.2525 204° Southwest 157 181 3,100 -780 Descending FAA TRACON SMA TRACON (SMA)
11:42AM 42.3144 -83.2633 210° Southwest 157 181 2,800 -900 Descending FAA TRACON SMA TRACON (SMA)
11:43AM 42.3008 -83.2744 211° Southwest 161 185 2,500 -780 Descending FAA TRACON SMA TRACON (SMA)
11:43AM 42.2900 -83.2822 208° Southwest 149 171 2,300 -780 Descending FAA TRACON SMA TRACON (SMA)
11:43AM 42.2778 -83.2911 208° Southwest 135 155 2,000 -900 Descending FAA TRACON SMA TRACON (SMA)
11:44AM 42.2661 -83.3000 209° Southwest 132 152 1,700 -780 Descending FAA TRACON SMA TRACON (SMA)
11:44AM 42.2567 -83.3069 209° Southwest 132 152 1,500 -600 Descending FAA TRACON SMA TRACON (SMA)
11:44AM 42.2444 -83.3158 208° Southwest 136 157 1,300 -780 Descending FAA TRACON SMA TRACON (SMA)
11:45AM 42.2350 -83.3228 209° Southwest 130 150 1,000 -780 Descending FAA TRACON SMA TRACON (SMA)
11:45AM 42.2233 -83.3311 208° Southwest 131 151 800 -600 Descending FAA TRACON SMA TRACON (SMA)
11:45AM 42.2122 -83.3394 209° Southwest 74 85 600 -300 Descending FAA TRACON SMA TRACON (SMA)
11:46AM 42.2108 -83.3406 211° Southwest 54 62 600  Level FAA TRACON SMA TRACON (SMA)
11:46AM 42.2108 -83.3406 45° Northeast 54 62 600  Level FAA TRACON SMA TRACON (SMA)